Airfield :
LOGIN :

Register | Disclaimer

   EN    FR    IT 

 










Legend :    VFR   Marginal VFR   IFR   Intensive IFR   Very Intensive IFR
Visi :
Ceiling :
>= 8 km
>= 3000ft
5 to 8 km
1000 to 3000 ft
1500m to 5 km
500 to 1000 ft
800 to 1500m
200 to 500 ft
< 800m
< 200 ft
Symbols :   Thunderstorms  Fog  Heavy snow  Heavy precipitations  Wind > 20 kt
SIGMETs :     Misc.  Thunderstorms  Icing  Turbulence  Mountain Waves  Volcanic Ashes






- Airport Elevation : 913 ft


LFSX - Luxeuil

CURRENT METAR :
  • 280730Z AUTO 25010KT 220V280 7000 -DZ ////// 08/08 Q1009

EXPIRED METARs :
  • 280700Z AUTO 23016KT 6000 -RA OVC007 08/07 Q1009
  • 280630Z AUTO VRB03KT 4400 -RA BR OVC005/// ///TCU 07/07 Q1009
  • 280600Z AUTO 06004KT 030V130 2900 -RA BR OVC004/// ///TCU 05/05 Q1009
  • 280530Z AUTO 06005KT 6000 -RA OVC005/// ///TCU 05/05 Q1010
  • 280500Z AUTO 08006KT 050V110 5000 -RA BR OVC005/// ///TCU 04/04 Q1010

TAF TAF LFSX
Valid from the 28 at 06:00 until the 29 at 03:00 UTC


280530Z 2806/2903 23010G25KT 4000 RA OVC005
BECMG 2813/2815 6000 OVC008



MET'MAP, your aeronautical weather chart ! - Copyright ORBIFLY December 2007 - Disclaimer

ORBIFLY MET'MAP TEAM :

Programming & Development : Alexandra Zaïnal
Concept & original design : Baudouin d'Aumeries
Assistance for programming : Marc-Olivier Méhu
Technical & hardware support : Manuel Goepfert

Contact : metmap@orbifly.com




SOURCES & CREDITS :

   NOAA